sensor_id;sensor_type;location;lat;lon;timestamp;P1;durP1;ratioP1;P2;durP2;ratioP2
20945;SDS011;10632;51.276;7.116;2023-04-09T00:02:16;31.48;;;9.75;;
20945;SDS011;10632;51.276;7.116;2023-04-09T00:04:43;35.92;;;11.30;;
20945;SDS011;10632;51.276;7.116;2023-04-09T00:07:10;31.30;;;9.82;;
20945;SDS011;10632;51.276;7.116;2023-04-09T00:09:36;34.10;;;10.90;;
20945;SDS011;10632;51.276;7.116;2023-04-09T00:12:04;40.63;;;9.88;;
20945;SDS011;10632;51.276;7.116;2023-04-09T00:14:31;32.28;;;9.15;;
20945;SDS011;10632;51.276;7.116;2023-04-09T00:16:59;28.40;;;8.80;;
20945;SDS011;10632;51.276;7.116;2023-04-09T00:19:26;29.38;;;10.02;;
20945;SDS011;10632;51.276;7.116;2023-04-09T00:21:53;35.72;;;10.32;;
20945;SDS011;10632;51.276;7.116;2023-04-09T00:24:20;40.50;;;10.25;;
20945;SDS011;10632;51.276;7.116;2023-04-09T00:26:46;34.80;;;10.70;;
20945;SDS011;10632;51.276;7.116;2023-04-09T00:29:13;32.33;;;9.90;;
20945;SDS011;10632;51.276;7.116;2023-04-09T00:31:40;26.63;;;9.30;;
20945;SDS011;10632;51.276;7.116;2023-04-09T00:34:09;26.65;;;9.23;;
20945;SDS011;10632;51.276;7.116;2023-04-09T00:36:35;27.17;;;8.57;;
20945;SDS011;10632;51.276;7.116;2023-04-09T00:39:02;28.25;;;9.10;;
20945;SDS011;10632;51.276;7.116;2023-04-09T00:41:29;28.02;;;8.73;;
20945;SDS011;10632;51.276;7.116;2023-04-09T00:43:56;22.77;;;7.65;;
20945;SDS011;10632;51.276;7.116;2023-04-09T00:46:23;27.67;;;7.88;;
20945;SDS011;10632;51.276;7.116;2023-04-09T00:48:50;28.27;;;8.63;;
20945;SDS011;10632;51.276;7.116;2023-04-09T00:51:19;24.17;;;8.27;;
20945;SDS011;10632;51.276;7.116;2023-04-09T00:53:45;21.30;;;7.45;;
20945;SDS011;10632;51.276;7.116;2023-04-09T00:56:13;27.05;;;8.50;;
20945;SDS011;10632;51.276;7.116;2023-04-09T00:58:42;23.88;;;7.10;;
20945;SDS011;10632;51.276;7.116;2023-04-09T01:01:09;23.92;;;8.40;;
20945;SDS011;10632;51.276;7.116;2023-04-09T01:03:36;25.60;;;8.60;;
20945;SDS011;10632;51.276;7.116;2023-04-09T01:06:05;25.80;;;8.10;;
20945;SDS011;10632;51.276;7.116;2023-04-09T01:08:40;21.98;;;7.80;;
20945;SDS011;10632;51.276;7.116;2023-04-09T01:11:15;25.25;;;7.97;;
20945;SDS011;10632;51.276;7.116;2023-04-09T01:13:51;26.33;;;7.78;;
20945;SDS011;10632;51.276;7.116;2023-04-09T01:16:24;27.30;;;8.88;;
20945;SDS011;10632;51.276;7.116;2023-04-09T01:18:55;23.80;;;7.72;;
20945;SDS011;10632;51.276;7.116;2023-04-09T01:21:28;25.88;;;8.02;;
20945;SDS011;10632;51.276;7.116;2023-04-09T01:24:14;23.52;;;7.93;;
20945;SDS011;10632;51.276;7.116;2023-04-09T01:26:56;26.27;;;8.23;;
20945;SDS011;10632;51.276;7.116;2023-04-09T01:29:30;23.23;;;7.60;;
20945;SDS011;10632;51.276;7.116;2023-04-09T01:31:58;22.38;;;7.35;;
20945;SDS011;10632;51.276;7.116;2023-04-09T01:34:27;22.27;;;7.40;;
20945;SDS011;10632;51.276;7.116;2023-04-09T01:36:56;29.67;;;8.77;;
20945;SDS011;10632;51.276;7.116;2023-04-09T01:39:25;21.52;;;7.35;;
20945;SDS011;10632;51.276;7.116;2023-04-09T01:41:52;27.17;;;8.15;;
20945;SDS011;10632;51.276;7.116;2023-04-09T01:44:20;24.95;;;7.35;;
20945;SDS011;10632;51.276;7.116;2023-04-09T01:46:51;23.92;;;7.68;;
20945;SDS011;10632;51.276;7.116;2023-04-09T01:49:18;19.98;;;7.25;;
20945;SDS011;10632;51.276;7.116;2023-04-09T01:51:46;23.73;;;7.90;;
20945;SDS011;10632;51.276;7.116;2023-04-09T01:54:13;25.30;;;7.63;;
20945;SDS011;10632;51.276;7.116;2023-04-09T01:56:41;22.70;;;7.65;;
20945;SDS011;10632;51.276;7.116;2023-04-09T01:59:09;22.83;;;8.15;;
20945;SDS011;10632;51.276;7.116;2023-04-09T02:01:37;24.00;;;7.18;;
20945;SDS011;10632;51.276;7.116;2023-04-09T02:04:12;22.75;;;7.28;;
20945;SDS011;10632;51.276;7.116;2023-04-09T02:06:43;26.30;;;6.93;;
20945;SDS011;10632;51.276;7.116;2023-04-09T02:09:13;29.75;;;7.38;;
20945;SDS011;10632;51.276;7.116;2023-04-09T02:11:43;23.30;;;7.20;;
20945;SDS011;10632;51.276;7.116;2023-04-09T02:14:12;23.63;;;7.88;;
20945;SDS011;10632;51.276;7.116;2023-04-09T02:16:41;21.02;;;7.28;;
20945;SDS011;10632;51.276;7.116;2023-04-09T02:19:09;20.60;;;7.40;;
20945;SDS011;10632;51.276;7.116;2023-04-09T02:21:36;20.95;;;6.63;;
20945;SDS011;10632;51.276;7.116;2023-04-09T02:24:03;21.55;;;6.72;;
20945;SDS011;10632;51.276;7.116;2023-04-09T02:26:30;22.88;;;7.55;;
20945;SDS011;10632;51.276;7.116;2023-04-09T02:28:57;22.88;;;7.07;;
20945;SDS011;10632;51.276;7.116;2023-04-09T02:31:24;26.42;;;6.90;;
20945;SDS011;10632;51.276;7.116;2023-04-09T02:33:51;20.80;;;6.78;;
20945;SDS011;10632;51.276;7.116;2023-04-09T02:36:20;23.52;;;7.28;;
20945;SDS011;10632;51.276;7.116;2023-04-09T02:38:46;21.02;;;6.85;;
20945;SDS011;10632;51.276;7.116;2023-04-09T02:41:13;21.38;;;7.00;;
20945;SDS011;10632;51.276;7.116;2023-04-09T02:43:40;23.42;;;6.55;;
20945;SDS011;10632;51.276;7.116;2023-04-09T02:46:07;17.40;;;6.30;;
20945;SDS011;10632;51.276;7.116;2023-04-09T02:48:34;19.42;;;6.32;;
20945;SDS011;10632;51.276;7.116;2023-04-09T02:51:03;21.95;;;7.28;;
20945;SDS011;10632;51.276;7.116;2023-04-09T02:53:32;23.98;;;6.10;;
20945;SDS011;10632;51.276;7.116;2023-04-09T02:55:59;20.52;;;6.72;;
20945;SDS011;10632;51.276;7.116;2023-04-09T02:58:25;17.98;;;6.60;;
20945;SDS011;10632;51.276;7.116;2023-04-09T03:00:52;25.40;;;7.50;;
20945;SDS011;10632;51.276;7.116;2023-04-09T03:03:20;18.17;;;6.35;;
20945;SDS011;10632;51.276;7.116;2023-04-09T03:05:49;20.73;;;6.55;;
20945;SDS011;10632;51.276;7.116;2023-04-09T03:08:16;17.70;;;6.50;;
20945;SDS011;10632;51.276;7.116;2023-04-09T03:10:45;20.08;;;5.97;;
20945;SDS011;10632;51.276;7.116;2023-04-09T03:13:11;24.80;;;7.47;;
20945;SDS011;10632;51.276;7.116;2023-04-09T03:15:40;19.05;;;6.65;;
20945;SDS011;10632;51.276;7.116;2023-04-09T03:18:07;18.13;;;5.82;;
20945;SDS011;10632;51.276;7.116;2023-04-09T03:20:36;16.08;;;6.20;;
20945;SDS011;10632;51.276;7.116;2023-04-09T03:23:03;17.13;;;5.97;;
20945;SDS011;10632;51.276;7.116;2023-04-09T03:25:30;15.60;;;5.55;;
20945;SDS011;10632;51.276;7.116;2023-04-09T03:27:58;19.83;;;5.82;;
20945;SDS011;10632;51.276;7.116;2023-04-09T03:30:25;18.38;;;5.45;;
20945;SDS011;10632;51.276;7.116;2023-04-09T03:32:52;17.10;;;5.75;;
20945;SDS011;10632;51.276;7.116;2023-04-09T03:35:19;17.83;;;5.75;;
20945;SDS011;10632;51.276;7.116;2023-04-09T03:37:46;14.45;;;5.25;;
20945;SDS011;10632;51.276;7.116;2023-04-09T03:40:13;17.92;;;5.80;;
20945;SDS011;10632;51.276;7.116;2023-04-09T03:42:41;15.65;;;5.00;;
20945;SDS011;10632;51.276;7.116;2023-04-09T03:45:09;16.52;;;4.70;;
20945;SDS011;10632;51.276;7.116;2023-04-09T03:47:36;13.82;;;5.00;;
20945;SDS011;10632;51.276;7.116;2023-04-09T03:50:03;14.00;;;4.22;;
20945;SDS011;10632;51.276;7.116;2023-04-09T03:52:31;14.98;;;4.55;;
20945;SDS011;10632;51.276;7.116;2023-04-09T03:54:58;14.93;;;5.05;;
20945;SDS011;10632;51.276;7.116;2023-04-09T03:57:24;12.80;;;4.75;;
20945;SDS011;10632;51.276;7.116;2023-04-09T03:59:51;18.83;;;4.77;;
20945;SDS011;10632;51.276;7.116;2023-04-09T04:02:20;15.23;;;5.13;;
20945;SDS011;10632;51.276;7.116;2023-04-09T04:04:46;16.13;;;4.35;;
20945;SDS011;10632;51.276;7.116;2023-04-09T04:07:13;13.40;;;4.47;;
20945;SDS011;10632;51.276;7.116;2023-04-09T04:09:40;10.93;;;4.13;;
20945;SDS011;10632;51.276;7.116;2023-04-09T04:12:13;15.90;;;4.57;;
20945;SDS011;10632;51.276;7.116;2023-04-09T04:14:45;17.35;;;4.10;;
20945;SDS011;10632;51.276;7.116;2023-04-09T04:17:17;11.20;;;4.03;;
20945;SDS011;10632;51.276;7.116;2023-04-09T04:19:51;12.45;;;3.97;;
20945;SDS011;10632;51.276;7.116;2023-04-09T04:22:19;13.43;;;4.18;;
20945;SDS011;10632;51.276;7.116;2023-04-09T04:24:46;12.87;;;4.10;;
20945;SDS011;10632;51.276;7.116;2023-04-09T04:27:12;13.27;;;4.13;;
20945;SDS011;10632;51.276;7.116;2023-04-09T04:29:40;9.87;;;3.67;;
20945;SDS011;10632;51.276;7.116;2023-04-09T04:32:06;10.63;;;3.20;;
20945;SDS011;10632;51.276;7.116;2023-04-09T04:34:33;11.65;;;4.10;;
20945;SDS011;10632;51.276;7.116;2023-04-09T04:37:01;12.40;;;3.60;;
20945;SDS011;10632;51.276;7.116;2023-04-09T04:39:29;8.55;;;2.90;;
20945;SDS011;10632;51.276;7.116;2023-04-09T04:41:56;13.00;;;3.67;;
20945;SDS011;10632;51.276;7.116;2023-04-09T04:44:23;12.57;;;3.47;;
20945;SDS011;10632;51.276;7.116;2023-04-09T04:46:50;9.90;;;3.30;;
20945;SDS011;10632;51.276;7.116;2023-04-09T04:49:16;9.07;;;3.00;;
20945;SDS011;10632;51.276;7.116;2023-04-09T04:51:43;9.87;;;3.20;;
20945;SDS011;10632;51.276;7.116;2023-04-09T04:54:11;10.02;;;3.67;;
20945;SDS011;10632;51.276;7.116;2023-04-09T04:56:38;8.98;;;2.70;;
20945;SDS011;10632;51.276;7.116;2023-04-09T04:59:05;11.18;;;3.25;;
20945;SDS011;10632;51.276;7.116;2023-04-09T05:01:32;12.70;;;3.72;;
20945;SDS011;10632;51.276;7.116;2023-04-09T05:03:59;8.32;;;2.53;;
20945;SDS011;10632;51.276;7.116;2023-04-09T05:06:27;10.10;;;3.08;;
20945;SDS011;10632;51.276;7.116;2023-04-09T05:08:54;9.10;;;3.03;;
20945;SDS011;10632;51.276;7.116;2023-04-09T05:11:23;8.57;;;2.67;;
20945;SDS011;10632;51.276;7.116;2023-04-09T05:13:50;9.87;;;2.60;;
20945;SDS011;10632;51.276;7.116;2023-04-09T05:16:17;10.13;;;3.03;;
20945;SDS011;10632;51.276;7.116;2023-04-09T05:18:45;10.02;;;2.75;;
20945;SDS011;10632;51.276;7.116;2023-04-09T05:21:14;9.00;;;2.90;;
20945;SDS011;10632;51.276;7.116;2023-04-09T05:23:41;10.45;;;3.08;;
20945;SDS011;10632;51.276;7.116;2023-04-09T05:26:08;10.13;;;2.80;;
20945;SDS011;10632;51.276;7.116;2023-04-09T05:28:37;9.98;;;2.92;;
20945;SDS011;10632;51.276;7.116;2023-04-09T05:31:04;9.35;;;3.30;;
20945;SDS011;10632;51.276;7.116;2023-04-09T05:33:35;10.30;;;2.88;;
20945;SDS011;10632;51.276;7.116;2023-04-09T05:36:02;9.15;;;2.80;;
20945;SDS011;10632;51.276;7.116;2023-04-09T05:38:30;12.43;;;3.17;;
20945;SDS011;10632;51.276;7.116;2023-04-09T05:40:57;9.82;;;3.20;;
20945;SDS011;10632;51.276;7.116;2023-04-09T05:43:24;12.63;;;3.27;;
20945;SDS011;10632;51.276;7.116;2023-04-09T05:45:52;10.57;;;3.17;;
20945;SDS011;10632;51.276;7.116;2023-04-09T05:48:19;9.50;;;3.10;;
20945;SDS011;10632;51.276;7.116;2023-04-09T05:50:48;9.73;;;3.20;;
20945;SDS011;10632;51.276;7.116;2023-04-09T05:53:16;9.98;;;3.28;;
20945;SDS011;10632;51.276;7.116;2023-04-09T05:55:44;11.20;;;3.72;;
20945;SDS011;10632;51.276;7.116;2023-04-09T05:58:12;14.13;;;3.77;;
20945;SDS011;10632;51.276;7.116;2023-04-09T06:00:39;8.93;;;3.05;;
20945;SDS011;10632;51.276;7.116;2023-04-09T06:03:07;11.53;;;3.43;;
20945;SDS011;10632;51.276;7.116;2023-04-09T06:05:34;8.53;;;3.13;;
20945;SDS011;10632;51.276;7.116;2023-04-09T06:08:01;10.63;;;3.53;;
20945;SDS011;10632;51.276;7.116;2023-04-09T06:10:30;9.95;;;2.95;;
20945;SDS011;10632;51.276;7.116;2023-04-09T06:12:58;9.45;;;2.90;;
20945;SDS011;10632;51.276;7.116;2023-04-09T06:15:25;9.73;;;2.92;;
20945;SDS011;10632;51.276;7.116;2023-04-09T06:17:52;13.27;;;3.72;;
20945;SDS011;10632;51.276;7.116;2023-04-09T06:20:20;11.60;;;3.42;;
20945;SDS011;10632;51.276;7.116;2023-04-09T06:22:47;13.10;;;3.17;;
20945;SDS011;10632;51.276;7.116;2023-04-09T06:25:15;9.85;;;3.22;;
20945;SDS011;10632;51.276;7.116;2023-04-09T06:27:42;11.77;;;3.28;;
20945;SDS011;10632;51.276;7.116;2023-04-09T06:30:09;14.32;;;3.72;;
20945;SDS011;10632;51.276;7.116;2023-04-09T06:32:36;12.50;;;4.07;;
20945;SDS011;10632;51.276;7.116;2023-04-09T06:35:04;10.98;;;3.88;;
20945;SDS011;10632;51.276;7.116;2023-04-09T06:37:33;15.82;;;3.70;;
20945;SDS011;10632;51.276;7.116;2023-04-09T06:40:01;10.23;;;3.35;;
20945;SDS011;10632;51.276;7.116;2023-04-09T06:42:28;12.70;;;3.92;;
20945;SDS011;10632;51.276;7.116;2023-04-09T06:44:55;9.98;;;3.63;;
20945;SDS011;10632;51.276;7.116;2023-04-09T06:47:22;13.05;;;3.53;;
20945;SDS011;10632;51.276;7.116;2023-04-09T06:49:48;13.63;;;3.80;;
20945;SDS011;10632;51.276;7.116;2023-04-09T06:52:16;13.38;;;4.22;;
20945;SDS011;10632;51.276;7.116;2023-04-09T06:54:44;11.93;;;3.88;;
20945;SDS011;10632;51.276;7.116;2023-04-09T06:57:11;14.57;;;4.20;;
20945;SDS011;10632;51.276;7.116;2023-04-09T06:59:38;17.02;;;4.10;;
20945;SDS011;10632;51.276;7.116;2023-04-09T07:02:05;14.02;;;4.30;;
20945;SDS011;10632;51.276;7.116;2023-04-09T07:04:32;17.67;;;4.05;;
20945;SDS011;10632;51.276;7.116;2023-04-09T07:06:59;13.93;;;4.00;;
20945;SDS011;10632;51.276;7.116;2023-04-09T07:09:31;19.15;;;4.95;;
20945;SDS011;10632;51.276;7.116;2023-04-09T07:12:09;14.65;;;4.25;;
20945;SDS011;10632;51.276;7.116;2023-04-09T07:14:39;17.52;;;4.32;;
20945;SDS011;10632;51.276;7.116;2023-04-09T07:17:19;14.82;;;4.47;;
20945;SDS011;10632;51.276;7.116;2023-04-09T07:19:48;12.68;;;4.22;;
20945;SDS011;10632;51.276;7.116;2023-04-09T07:22:19;13.77;;;4.45;;
20945;SDS011;10632;51.276;7.116;2023-04-09T07:24:46;16.65;;;4.72;;
20945;SDS011;10632;51.276;7.116;2023-04-09T07:27:32;15.48;;;4.55;;
20945;SDS011;10632;51.276;7.116;2023-04-09T07:30:06;11.77;;;3.92;;
20945;SDS011;10632;51.276;7.116;2023-04-09T07:32:40;11.40;;;4.07;;
20945;SDS011;10632;51.276;7.116;2023-04-09T07:35:10;13.00;;;3.97;;
20945;SDS011;10632;51.276;7.116;2023-04-09T07:37:46;14.48;;;4.00;;
20945;SDS011;10632;51.276;7.116;2023-04-09T07:40:17;10.68;;;3.78;;
20945;SDS011;10632;51.276;7.116;2023-04-09T07:42:47;12.35;;;4.10;;
20945;SDS011;10632;51.276;7.116;2023-04-09T07:45:20;11.52;;;3.60;;
20945;SDS011;10632;51.276;7.116;2023-04-09T07:47:51;13.48;;;4.00;;
20945;SDS011;10632;51.276;7.116;2023-04-09T07:50:21;12.68;;;3.47;;
20945;SDS011;10632;51.276;7.116;2023-04-09T07:52:51;13.02;;;3.80;;
20945;SDS011;10632;51.276;7.116;2023-04-09T07:55:28;11.98;;;3.70;;
20945;SDS011;10632;51.276;7.116;2023-04-09T07:57:56;11.40;;;3.88;;
20945;SDS011;10632;51.276;7.116;2023-04-09T08:00:31;9.65;;;3.20;;
20945;SDS011;10632;51.276;7.116;2023-04-09T08:03:03;10.00;;;3.10;;
20945;SDS011;10632;51.276;7.116;2023-04-09T08:05:38;13.43;;;3.35;;
20945;SDS011;10632;51.276;7.116;2023-04-09T08:08:09;12.90;;;3.60;;
20945;SDS011;10632;51.276;7.116;2023-04-09T08:10:39;10.32;;;3.22;;
20945;SDS011;10632;51.276;7.116;2023-04-09T08:13:17;7.80;;;2.65;;
20945;SDS011;10632;51.276;7.116;2023-04-09T08:15:58;11.45;;;3.47;;
20945;SDS011;10632;51.276;7.116;2023-04-09T08:18:35;9.30;;;2.92;;
20945;SDS011;10632;51.276;7.116;2023-04-09T08:21:17;9.38;;;3.00;;
20945;SDS011;10632;51.276;7.116;2023-04-09T08:24:00;10.05;;;2.90;;
20945;SDS011;10632;51.276;7.116;2023-04-09T08:26:35;8.93;;;3.13;;
20945;SDS011;10632;51.276;7.116;2023-04-09T08:29:10;8.18;;;2.75;;
20945;SDS011;10632;51.276;7.116;2023-04-09T08:31:42;9.02;;;2.80;;
20945;SDS011;10632;51.276;7.116;2023-04-09T08:34:09;8.88;;;2.85;;
20945;SDS011;10632;51.276;7.116;2023-04-09T08:39:40;9.43;;;2.95;;
20945;SDS011;10632;51.276;7.116;2023-04-09T08:42:17;7.95;;;2.83;;
20945;SDS011;10632;51.276;7.116;2023-04-09T08:44:53;8.00;;;2.38;;
20945;SDS011;10632;51.276;7.116;2023-04-09T08:47:37;6.30;;;1.90;;
20945;SDS011;10632;51.276;7.116;2023-04-09T08:50:26;6.82;;;2.38;;
20945;SDS011;10632;51.276;7.116;2023-04-09T08:53:04;6.65;;;2.58;;
20945;SDS011;10632;51.276;7.116;2023-04-09T08:55:44;6.35;;;2.25;;
20945;SDS011;10632;51.276;7.116;2023-04-09T08:58:29;7.13;;;2.55;;
20945;SDS011;10632;51.276;7.116;2023-04-09T09:01:08;7.35;;;2.38;;
20945;SDS011;10632;51.276;7.116;2023-04-09T09:04:03;6.90;;;2.53;;
20945;SDS011;10632;51.276;7.116;2023-04-09T09:06:43;5.85;;;1.95;;
20945;SDS011;10632;51.276;7.116;2023-04-09T09:09:30;8.27;;;1.98;;
20945;SDS011;10632;51.276;7.116;2023-04-09T09:12:34;7.93;;;2.28;;
20945;SDS011;10632;51.276;7.116;2023-04-09T09:15:24;6.18;;;2.30;;
20945;SDS011;10632;51.276;7.116;2023-04-09T09:18:02;6.20;;;2.15;;
20945;SDS011;10632;51.276;7.116;2023-04-09T09:20:43;6.88;;;2.55;;
20945;SDS011;10632;51.276;7.116;2023-04-09T09:23:12;9.55;;;2.35;;
20945;SDS011;10632;51.276;7.116;2023-04-09T09:25:43;5.93;;;2.17;;
20945;SDS011;10632;51.276;7.116;2023-04-09T09:28:24;7.47;;;2.67;;
20945;SDS011;10632;51.276;7.116;2023-04-09T09:31:09;8.88;;;2.47;;
20945;SDS011;10632;51.276;7.116;2023-04-09T09:33:43;9.38;;;2.60;;
20945;SDS011;10632;51.276;7.116;2023-04-09T09:36:20;7.18;;;2.40;;
20945;SDS011;10632;51.276;7.116;2023-04-09T09:39:04;7.70;;;2.70;;
20945;SDS011;10632;51.276;7.116;2023-04-09T09:41:37;8.15;;;2.45;;
20945;SDS011;10632;51.276;7.116;2023-04-09T09:44:06;8.27;;;3.00;;
20945;SDS011;10632;51.276;7.116;2023-04-09T09:46:38;7.82;;;2.33;;
20945;SDS011;10632;51.276;7.116;2023-04-09T09:49:11;6.97;;;2.50;;
20945;SDS011;10632;51.276;7.116;2023-04-09T09:51:47;7.10;;;2.65;;
20945;SDS011;10632;51.276;7.116;2023-04-09T09:54:37;6.65;;;2.33;;
20945;SDS011;10632;51.276;7.116;2023-04-09T09:57:10;7.75;;;2.67;;
20945;SDS011;10632;51.276;7.116;2023-04-09T09:59:42;8.13;;;2.33;;
20945;SDS011;10632;51.276;7.116;2023-04-09T10:02:26;6.75;;;2.58;;
20945;SDS011;10632;51.276;7.116;2023-04-09T10:05:12;7.55;;;2.60;;
20945;SDS011;10632;51.276;7.116;2023-04-09T10:07:49;7.10;;;2.60;;
20945;SDS011;10632;51.276;7.116;2023-04-09T10:10:27;6.45;;;2.20;;
20945;SDS011;10632;51.276;7.116;2023-04-09T10:13:06;7.57;;;2.92;;
20945;SDS011;10632;51.276;7.116;2023-04-09T10:15:50;8.57;;;2.50;;
20945;SDS011;10632;51.276;7.116;2023-04-09T10:18:40;7.25;;;2.70;;
20945;SDS011;10632;51.276;7.116;2023-04-09T10:21:31;7.97;;;2.85;;
20945;SDS011;10632;51.276;7.116;2023-04-09T10:24:06;8.90;;;2.67;;
20945;SDS011;10632;51.276;7.116;2023-04-09T10:26:42;7.72;;;2.90;;
20945;SDS011;10632;51.276;7.116;2023-04-09T10:29:21;7.45;;;2.85;;
20945;SDS011;10632;51.276;7.116;2023-04-09T10:32:17;8.52;;;3.00;;
20945;SDS011;10632;51.276;7.116;2023-04-09T10:34:54;8.30;;;2.67;;
20945;SDS011;10632;51.276;7.116;2023-04-09T10:37:32;6.35;;;2.70;;
20945;SDS011;10632;51.276;7.116;2023-04-09T10:40:06;7.60;;;2.97;;
20945;SDS011;10632;51.276;7.116;2023-04-09T10:42:49;9.13;;;3.05;;
20945;SDS011;10632;51.276;7.116;2023-04-09T10:45:26;10.10;;;3.47;;
20945;SDS011;10632;51.276;7.116;2023-04-09T10:48:14;7.55;;;3.00;;
20945;SDS011;10632;51.276;7.116;2023-04-09T10:50:51;9.85;;;3.28;;
20945;SDS011;10632;51.276;7.116;2023-04-09T10:53:25;8.45;;;3.20;;
20945;SDS011;10632;51.276;7.116;2023-04-09T10:56:05;7.95;;;3.00;;
20945;SDS011;10632;51.276;7.116;2023-04-09T10:58:45;8.60;;;3.60;;
20945;SDS011;10632;51.276;7.116;2023-04-09T11:01:19;11.43;;;3.20;;
20945;SDS011;10632;51.276;7.116;2023-04-09T11:04:05;9.02;;;3.20;;
20945;SDS011;10632;51.276;7.116;2023-04-09T11:06:48;8.75;;;3.13;;
20945;SDS011;10632;51.276;7.116;2023-04-09T11:09:21;9.27;;;3.13;;
20945;SDS011;10632;51.276;7.116;2023-04-09T11:11:59;7.55;;;2.90;;
20945;SDS011;10632;51.276;7.116;2023-04-09T11:14:28;7.35;;;2.60;;
20945;SDS011;10632;51.276;7.116;2023-04-09T11:17:02;7.63;;;2.83;;
20945;SDS011;10632;51.276;7.116;2023-04-09T11:19:32;9.10;;;3.05;;
20945;SDS011;10632;51.276;7.116;2023-04-09T11:22:14;6.28;;;2.22;;
20945;SDS011;10632;51.276;7.116;2023-04-09T11:24:54;6.38;;;2.75;;
20945;SDS011;10632;51.276;7.116;2023-04-09T11:27:28;7.85;;;2.70;;
20945;SDS011;10632;51.276;7.116;2023-04-09T11:30:04;7.53;;;3.15;;
20945;SDS011;10632;51.276;7.116;2023-04-09T11:32:51;6.47;;;2.45;;
20945;SDS011;10632;51.276;7.116;2023-04-09T11:35:21;7.20;;;2.80;;
20945;SDS011;10632;51.276;7.116;2023-04-09T11:37:57;7.05;;;3.05;;
20945;SDS011;10632;51.276;7.116;2023-04-09T11:40:37;7.28;;;2.80;;
20945;SDS011;10632;51.276;7.116;2023-04-09T11:43:15;6.57;;;2.47;;
20945;SDS011;10632;51.276;7.116;2023-04-09T11:45:47;8.95;;;3.08;;
20945;SDS011;10632;51.276;7.116;2023-04-09T11:48:47;7.00;;;2.72;;
20945;SDS011;10632;51.276;7.116;2023-04-09T11:51:13;7.80;;;2.45;;
20945;SDS011;10632;51.276;7.116;2023-04-09T11:53:58;9.32;;;3.20;;
20945;SDS011;10632;51.276;7.116;2023-04-09T11:56:44;6.97;;;2.90;;
20945;SDS011;10632;51.276;7.116;2023-04-09T11:59:20;8.43;;;2.88;;
20945;SDS011;10632;51.276;7.116;2023-04-09T12:01:49;6.88;;;2.60;;
20945;SDS011;10632;51.276;7.116;2023-04-09T12:04:23;6.90;;;2.58;;
20945;SDS011;10632;51.276;7.116;2023-04-09T12:06:57;8.18;;;2.78;;
20945;SDS011;10632;51.276;7.116;2023-04-09T12:09:47;9.43;;;2.90;;
20945;SDS011;10632;51.276;7.116;2023-04-09T12:12:23;7.07;;;2.72;;
20945;SDS011;10632;51.276;7.116;2023-04-09T12:14:55;7.60;;;2.53;;
20945;SDS011;10632;51.276;7.116;2023-04-09T12:17:56;8.65;;;3.22;;
20945;SDS011;10632;51.276;7.116;2023-04-09T12:20:39;7.75;;;2.83;;
20945;SDS011;10632;51.276;7.116;2023-04-09T12:23:14;7.13;;;2.60;;
20945;SDS011;10632;51.276;7.116;2023-04-09T12:25:47;6.38;;;2.55;;
20945;SDS011;10632;51.276;7.116;2023-04-09T12:28:20;6.60;;;2.65;;
20945;SDS011;10632;51.276;7.116;2023-04-09T12:30:57;9.25;;;3.00;;
20945;SDS011;10632;51.276;7.116;2023-04-09T12:33:34;9.65;;;2.78;;
20945;SDS011;10632;51.276;7.116;2023-04-09T12:36:06;8.65;;;2.92;;
20945;SDS011;10632;51.276;7.116;2023-04-09T12:38:41;8.40;;;3.00;;
20945;SDS011;10632;51.276;7.116;2023-04-09T12:41:08;7.88;;;2.97;;
20945;SDS011;10632;51.276;7.116;2023-04-09T12:43:36;7.30;;;2.72;;
20945;SDS011;10632;51.276;7.116;2023-04-09T12:46:03;8.80;;;2.90;;
20945;SDS011;10632;51.276;7.116;2023-04-09T12:48:30;7.68;;;3.00;;
20945;SDS011;10632;51.276;7.116;2023-04-09T12:50:58;8.50;;;3.35;;
20945;SDS011;10632;51.276;7.116;2023-04-09T12:53:25;8.13;;;2.63;;
20945;SDS011;10632;51.276;7.116;2023-04-09T12:55:52;8.25;;;2.97;;
20945;SDS011;10632;51.276;7.116;2023-04-09T12:58:19;8.35;;;3.15;;
20945;SDS011;10632;51.276;7.116;2023-04-09T13:00:49;6.70;;;2.58;;
20945;SDS011;10632;51.276;7.116;2023-04-09T13:03:17;6.03;;;2.38;;
20945;SDS011;10632;51.276;7.116;2023-04-09T13:05:45;6.30;;;2.50;;
20945;SDS011;10632;51.276;7.116;2023-04-09T13:08:12;5.78;;;2.35;;
20945;SDS011;10632;51.276;7.116;2023-04-09T13:10:39;5.78;;;2.40;;
20945;SDS011;10632;51.276;7.116;2023-04-09T13:13:06;7.78;;;2.83;;
20945;SDS011;10632;51.276;7.116;2023-04-09T13:15:37;8.18;;;2.70;;
20945;SDS011;10632;51.276;7.116;2023-04-09T13:18:05;9.27;;;3.20;;
20945;SDS011;10632;51.276;7.116;2023-04-09T13:20:32;6.65;;;2.60;;
20945;SDS011;10632;51.276;7.116;2023-04-09T13:22:59;6.50;;;2.42;;
20945;SDS011;10632;51.276;7.116;2023-04-09T13:25:26;7.25;;;2.78;;
20945;SDS011;10632;51.276;7.116;2023-04-09T13:27:52;9.02;;;2.70;;
20945;SDS011;10632;51.276;7.116;2023-04-09T13:30:20;6.93;;;2.63;;
20945;SDS011;10632;51.276;7.116;2023-04-09T13:32:47;7.45;;;2.60;;
20945;SDS011;10632;51.276;7.116;2023-04-09T13:35:15;5.95;;;2.30;;
20945;SDS011;10632;51.276;7.116;2023-04-09T13:37:43;5.60;;;2.42;;
20945;SDS011;10632;51.276;7.116;2023-04-09T13:40:10;5.60;;;2.30;;
20945;SDS011;10632;51.276;7.116;2023-04-09T13:42:37;7.60;;;2.50;;
20945;SDS011;10632;51.276;7.116;2023-04-09T13:45:05;6.78;;;2.30;;
20945;SDS011;10632;51.276;7.116;2023-04-09T13:47:32;8.23;;;2.80;;
20945;SDS011;10632;51.276;7.116;2023-04-09T13:49:59;6.22;;;2.20;;
20945;SDS011;10632;51.276;7.116;2023-04-09T13:52:28;8.07;;;2.50;;
20945;SDS011;10632;51.276;7.116;2023-04-09T13:54:55;6.43;;;2.35;;
20945;SDS011;10632;51.276;7.116;2023-04-09T13:57:21;6.72;;;2.25;;
20945;SDS011;10632;51.276;7.116;2023-04-09T13:59:48;5.82;;;2.45;;
20945;SDS011;10632;51.276;7.116;2023-04-09T14:02:15;5.88;;;2.38;;
20945;SDS011;10632;51.276;7.116;2023-04-09T14:04:43;6.63;;;2.47;;
20945;SDS011;10632;51.276;7.116;2023-04-09T14:07:10;5.35;;;2.20;;
20945;SDS011;10632;51.276;7.116;2023-04-09T14:09:38;5.80;;;2.25;;
20945;SDS011;10632;51.276;7.116;2023-04-09T14:12:05;5.65;;;2.28;;
20945;SDS011;10632;51.276;7.116;2023-04-09T14:14:32;6.13;;;2.28;;
20945;SDS011;10632;51.276;7.116;2023-04-09T14:16:58;6.20;;;2.15;;
20945;SDS011;10632;51.276;7.116;2023-04-09T14:19:25;5.13;;;2.05;;
20945;SDS011;10632;51.276;7.116;2023-04-09T14:21:54;5.95;;;2.08;;
20945;SDS011;10632;51.276;7.116;2023-04-09T14:24:21;7.68;;;2.25;;
20945;SDS011;10632;51.276;7.116;2023-04-09T14:26:50;5.43;;;2.35;;
20945;SDS011;10632;51.276;7.116;2023-04-09T14:29:17;5.53;;;2.05;;
20945;SDS011;10632;51.276;7.116;2023-04-09T14:31:44;5.03;;;2.10;;
20945;SDS011;10632;51.276;7.116;2023-04-09T14:34:11;6.30;;;2.28;;
20945;SDS011;10632;51.276;7.116;2023-04-09T14:36:38;5.15;;;2.13;;
20945;SDS011;10632;51.276;7.116;2023-04-09T14:39:08;5.45;;;2.08;;
20945;SDS011;10632;51.276;7.116;2023-04-09T14:41:35;5.25;;;2.00;;
20945;SDS011;10632;51.276;7.116;2023-04-09T14:44:03;4.47;;;1.88;;
20945;SDS011;10632;51.276;7.116;2023-04-09T14:46:30;6.28;;;2.03;;
20945;SDS011;10632;51.276;7.116;2023-04-09T14:48:57;5.30;;;2.20;;
20945;SDS011;10632;51.276;7.116;2023-04-09T14:51:24;5.63;;;2.13;;
20945;SDS011;10632;51.276;7.116;2023-04-09T14:53:51;5.25;;;2.03;;
20945;SDS011;10632;51.276;7.116;2023-04-09T14:56:18;5.38;;;1.90;;
20945;SDS011;10632;51.276;7.116;2023-04-09T14:58:45;7.00;;;2.05;;
20945;SDS011;10632;51.276;7.116;2023-04-09T15:01:14;5.15;;;1.98;;
20945;SDS011;10632;51.276;7.116;2023-04-09T15:03:41;6.18;;;2.33;;
20945;SDS011;10632;51.276;7.116;2023-04-09T15:06:09;4.35;;;1.90;;
20945;SDS011;10632;51.276;7.116;2023-04-09T15:08:37;5.47;;;2.20;;